sensor_id;sensor_type;location;lat;lon;timestamp;P1;durP1;ratioP1;P2;durP2;ratioP2
11135;SDS011;5622;50.840;4.948;2023-11-21T00:00:31;56.37;;;27.20;;
11135;SDS011;5622;50.840;4.948;2023-11-21T00:03:12;59.70;;;27.10;;
11135;SDS011;5622;50.840;4.948;2023-11-21T00:05:56;53.13;;;26.37;;
11135;SDS011;5622;50.840;4.948;2023-11-21T00:08:38;62.10;;;24.70;;
11135;SDS011;5622;50.840;4.948;2023-11-21T00:11:21;63.47;;;26.67;;
11135;SDS011;5622;50.840;4.948;2023-11-21T00:17:01;60.07;;;26.43;;
11135;SDS011;5622;50.840;4.948;2023-11-21T00:19:35;56.67;;;26.00;;
11135;SDS011;5622;50.840;4.948;2023-11-21T00:22:03;59.63;;;26.13;;
11135;SDS011;5622;50.840;4.948;2023-11-21T00:24:44;66.23;;;27.37;;
11135;SDS011;5622;50.840;4.948;2023-11-21T00:27:16;54.03;;;27.50;;
11135;SDS011;5622;50.840;4.948;2023-11-21T00:29:52;58.73;;;26.73;;
11135;SDS011;5622;50.840;4.948;2023-11-21T00:35:09;64.27;;;27.37;;
11135;SDS011;5622;50.840;4.948;2023-11-21T00:37:39;70.43;;;29.53;;
11135;SDS011;5622;50.840;4.948;2023-11-21T00:40:09;55.23;;;25.53;;
11135;SDS011;5622;50.840;4.948;2023-11-21T00:42:42;53.33;;;26.43;;
11135;SDS011;5622;50.840;4.948;2023-11-21T00:45:25;64.10;;;28.23;;
11135;SDS011;5622;50.840;4.948;2023-11-21T00:47:58;59.70;;;29.50;;
11135;SDS011;5622;50.840;4.948;2023-11-21T00:50:26;64.43;;;30.87;;
11135;SDS011;5622;50.840;4.948;2023-11-21T00:53:03;57.37;;;28.50;;
11135;SDS011;5622;50.840;4.948;2023-11-21T00:55:32;64.97;;;28.97;;
11135;SDS011;5622;50.840;4.948;2023-11-21T00:58:01;58.97;;;28.47;;
11135;SDS011;5622;50.840;4.948;2023-11-21T01:00:37;71.07;;;30.83;;
11135;SDS011;5622;50.840;4.948;2023-11-21T01:06:02;63.73;;;29.23;;
11135;SDS011;5622;50.840;4.948;2023-11-21T01:08:43;76.90;;;33.27;;
11135;SDS011;5622;50.840;4.948;2023-11-21T01:11:16;61.30;;;28.77;;
11135;SDS011;5622;50.840;4.948;2023-11-21T01:13:47;59.93;;;28.93;;
11135;SDS011;5622;50.840;4.948;2023-11-21T01:16:15;68.57;;;30.23;;
11135;SDS011;5622;50.840;4.948;2023-11-21T01:25:00;61.50;;;30.40;;
11135;SDS011;5622;50.840;4.948;2023-11-21T01:27:31;62.40;;;28.30;;
11135;SDS011;5622;50.840;4.948;2023-11-21T01:30:02;52.17;;;26.43;;
11135;SDS011;5622;50.840;4.948;2023-11-21T01:32:32;68.07;;;31.13;;
11135;SDS011;5622;50.840;4.948;2023-11-21T01:35:13;57.00;;;28.90;;
11135;SDS011;5622;50.840;4.948;2023-11-21T01:37:46;55.20;;;27.20;;
11135;SDS011;5622;50.840;4.948;2023-11-21T01:40:27;59.60;;;28.93;;
11135;SDS011;5622;50.840;4.948;2023-11-21T01:43:15;58.63;;;27.03;;
11135;SDS011;5622;50.840;4.948;2023-11-21T02:12:29;48.37;;;22.27;;
11135;SDS011;5622;50.840;4.948;2023-11-21T02:15:10;42.03;;;21.97;;
11135;SDS011;5622;50.840;4.948;2023-11-21T02:17:45;49.23;;;22.57;;
11135;SDS011;5622;50.840;4.948;2023-11-21T02:20:17;49.17;;;22.17;;
11135;SDS011;5622;50.840;4.948;2023-11-21T02:22:54;47.53;;;21.93;;
11135;SDS011;5622;50.840;4.948;2023-11-21T02:25:30;41.73;;;20.70;;
11135;SDS011;5622;50.840;4.948;2023-11-21T02:28:12;41.23;;;21.30;;
11135;SDS011;5622;50.840;4.948;2023-11-21T02:30:57;38.53;;;20.93;;
11135;SDS011;5622;50.840;4.948;2023-11-21T02:33:28;42.30;;;21.37;;
11135;SDS011;5622;50.840;4.948;2023-11-21T02:35:59;41.00;;;21.10;;
11135;SDS011;5622;50.840;4.948;2023-11-21T02:41:40;44.60;;;20.83;;
11135;SDS011;5622;50.840;4.948;2023-11-21T02:44:19;46.03;;;22.77;;
11135;SDS011;5622;50.840;4.948;2023-11-21T02:47:00;41.03;;;21.70;;
11135;SDS011;5622;50.840;4.948;2023-11-21T02:49:41;35.20;;;19.53;;
11135;SDS011;5622;50.840;4.948;2023-11-21T02:52:09;48.83;;;20.67;;
11135;SDS011;5622;50.840;4.948;2023-11-21T02:54:37;45.40;;;22.20;;
11135;SDS011;5622;50.840;4.948;2023-11-21T02:57:21;46.93;;;22.17;;
11135;SDS011;5622;50.840;4.948;2023-11-21T02:59:48;39.23;;;20.70;;
11135;SDS011;5622;50.840;4.948;2023-11-21T03:02:29;46.23;;;21.43;;
11135;SDS011;5622;50.840;4.948;2023-11-21T03:04:57;64.60;;;23.57;;
11135;SDS011;5622;50.840;4.948;2023-11-21T03:07:31;43.53;;;20.33;;
11135;SDS011;5622;50.840;4.948;2023-11-21T03:10:12;69.10;;;23.70;;
11135;SDS011;5622;50.840;4.948;2023-11-21T03:15:55;51.43;;;19.00;;
11135;SDS011;5622;50.840;4.948;2023-11-21T03:18:38;38.67;;;18.47;;
11135;SDS011;5622;50.840;4.948;2023-11-21T03:21:09;43.83;;;19.27;;
11135;SDS011;5622;50.840;4.948;2023-11-21T03:23:37;71.60;;;23.00;;
11135;SDS011;5622;50.840;4.948;2023-11-21T03:26:18;39.53;;;19.73;;
11135;SDS011;5622;50.840;4.948;2023-11-21T03:28:47;51.27;;;20.93;;
11135;SDS011;5622;50.840;4.948;2023-11-21T03:31:23;53.60;;;20.00;;
11135;SDS011;5622;50.840;4.948;2023-11-21T03:33:54;48.40;;;19.10;;
11135;SDS011;5622;50.840;4.948;2023-11-21T03:36:21;51.40;;;19.10;;
11135;SDS011;5622;50.840;4.948;2023-11-21T03:38:53;38.80;;;16.83;;
11135;SDS011;5622;50.840;4.948;2023-11-21T03:41:21;50.77;;;19.27;;
11135;SDS011;5622;50.840;4.948;2023-11-21T03:43:53;33.93;;;17.33;;
11135;SDS011;5622;50.840;4.948;2023-11-21T03:46:38;36.13;;;18.20;;
11135;SDS011;5622;50.840;4.948;2023-11-21T03:49:15;39.70;;;17.37;;
11135;SDS011;5622;50.840;4.948;2023-11-21T03:51:46;42.87;;;18.13;;
11135;SDS011;5622;50.840;4.948;2023-11-21T03:54:24;44.93;;;18.30;;
11135;SDS011;5622;50.840;4.948;2023-11-21T03:57:05;35.73;;;16.73;;
11135;SDS011;5622;50.840;4.948;2023-11-21T03:59:32;30.87;;;16.60;;
11135;SDS011;5622;50.840;4.948;2023-11-21T04:02:08;63.63;;;18.97;;
11135;SDS011;5622;50.840;4.948;2023-11-21T04:04:49;36.23;;;16.27;;
11135;SDS011;5622;50.840;4.948;2023-11-21T04:07:24;66.80;;;17.33;;
11135;SDS011;5622;50.840;4.948;2023-11-21T04:10:02;38.80;;;15.77;;
11135;SDS011;5622;50.840;4.948;2023-11-21T04:12:34;29.17;;;15.90;;
11135;SDS011;5622;50.840;4.948;2023-11-21T04:15:06;30.30;;;14.73;;
11135;SDS011;5622;50.840;4.948;2023-11-21T04:17:46;32.83;;;15.73;;
11135;SDS011;5622;50.840;4.948;2023-11-21T04:20:13;30.43;;;14.80;;
11135;SDS011;5622;50.840;4.948;2023-11-21T04:22:45;26.77;;;15.17;;
11135;SDS011;5622;50.840;4.948;2023-11-21T04:25:27;29.20;;;14.00;;
11135;SDS011;5622;50.840;4.948;2023-11-21T04:28:08;30.60;;;15.30;;
11135;SDS011;5622;50.840;4.948;2023-11-21T04:30:49;35.90;;;16.37;;
11135;SDS011;5622;50.840;4.948;2023-11-21T04:36:32;54.90;;;18.83;;
11135;SDS011;5622;50.840;4.948;2023-11-21T04:39:03;52.73;;;16.47;;
11135;SDS011;5622;50.840;4.948;2023-11-21T04:41:32;32.07;;;16.40;;
11135;SDS011;5622;50.840;4.948;2023-11-21T04:44:15;32.73;;;16.80;;
11135;SDS011;5622;50.840;4.948;2023-11-21T04:46:42;36.60;;;18.30;;
11135;SDS011;5622;50.840;4.948;2023-11-21T04:49:15;36.07;;;17.40;;
11135;SDS011;5622;50.840;4.948;2023-11-21T04:51:56;29.73;;;16.37;;
11135;SDS011;5622;50.840;4.948;2023-11-21T04:54:37;55.93;;;19.60;;
11135;SDS011;5622;50.840;4.948;2023-11-21T04:57:06;43.73;;;19.80;;
11135;SDS011;5622;50.840;4.948;2023-11-21T04:59:43;36.17;;;18.10;;
11135;SDS011;5622;50.840;4.948;2023-11-21T05:02:24;46.77;;;18.30;;
11135;SDS011;5622;50.840;4.948;2023-11-21T05:05:10;37.87;;;18.30;;
11135;SDS011;5622;50.840;4.948;2023-11-21T05:07:50;47.77;;;21.90;;
11135;SDS011;5622;50.840;4.948;2023-11-21T05:10:20;39.83;;;20.80;;
11135;SDS011;5622;50.840;4.948;2023-11-21T05:12:53;40.50;;;18.47;;
11135;SDS011;5622;50.840;4.948;2023-11-21T05:15:27;36.43;;;18.70;;
11135;SDS011;5622;50.840;4.948;2023-11-21T05:17:58;41.07;;;19.53;;
11135;SDS011;5622;50.840;4.948;2023-11-21T05:26:45;39.10;;;19.23;;
11135;SDS011;5622;50.840;4.948;2023-11-21T05:29:26;43.20;;;20.73;;
11135;SDS011;5622;50.840;4.948;2023-11-21T05:32:09;43.70;;;22.00;;
11135;SDS011;5622;50.840;4.948;2023-11-21T05:34:54;54.97;;;22.60;;
11135;SDS011;5622;50.840;4.948;2023-11-21T05:37:35;46.20;;;21.43;;
11135;SDS011;5622;50.840;4.948;2023-11-21T05:43:03;43.70;;;21.33;;
11135;SDS011;5622;50.840;4.948;2023-11-21T05:45:34;43.40;;;20.90;;
11135;SDS011;5622;50.840;4.948;2023-11-21T05:48:04;47.93;;;20.90;;
11135;SDS011;5622;50.840;4.948;2023-11-21T05:50:31;53.73;;;23.03;;
11135;SDS011;5622;50.840;4.948;2023-11-21T05:52:59;42.47;;;19.40;;
11135;SDS011;5622;50.840;4.948;2023-11-21T05:55:28;41.30;;;20.63;;
11135;SDS011;5622;50.840;4.948;2023-11-21T05:58:00;46.43;;;20.63;;
11135;SDS011;5622;50.840;4.948;2023-11-21T06:00:29;59.77;;;21.73;;
11135;SDS011;5622;50.840;4.948;2023-11-21T06:02:57;52.37;;;19.30;;
11135;SDS011;5622;50.840;4.948;2023-11-21T06:05:26;46.60;;;20.67;;
11135;SDS011;5622;50.840;4.948;2023-11-21T06:07:58;46.03;;;20.67;;
11135;SDS011;5622;50.840;4.948;2023-11-21T06:10:31;37.93;;;17.33;;
11135;SDS011;5622;50.840;4.948;2023-11-21T06:12:59;35.37;;;17.40;;
11135;SDS011;5622;50.840;4.948;2023-11-21T06:15:35;49.97;;;21.23;;
11135;SDS011;5622;50.840;4.948;2023-11-21T06:18:04;65.33;;;21.33;;
11135;SDS011;5622;50.840;4.948;2023-11-21T06:20:35;65.67;;;22.60;;
11135;SDS011;5622;50.840;4.948;2023-11-21T06:23:18;44.60;;;19.27;;
11135;SDS011;5622;50.840;4.948;2023-11-21T06:25:51;46.47;;;19.03;;
11135;SDS011;5622;50.840;4.948;2023-11-21T06:28:19;40.50;;;19.10;;
11135;SDS011;5622;50.840;4.948;2023-11-21T06:30:46;42.07;;;19.67;;
11135;SDS011;5622;50.840;4.948;2023-11-21T06:33:15;44.03;;;18.80;;
11135;SDS011;5622;50.840;4.948;2023-11-21T06:35:46;66.10;;;18.67;;
11135;SDS011;5622;50.840;4.948;2023-11-21T06:38:16;37.57;;;19.00;;
11135;SDS011;5622;50.840;4.948;2023-11-21T06:40:46;35.87;;;18.13;;
11135;SDS011;5622;50.840;4.948;2023-11-21T06:43:14;32.53;;;17.47;;
11135;SDS011;5622;50.840;4.948;2023-11-21T06:45:42;39.77;;;18.10;;
11135;SDS011;5622;50.840;4.948;2023-11-21T06:48:10;37.83;;;18.13;;
11135;SDS011;5622;50.840;4.948;2023-11-21T06:50:37;37.40;;;18.30;;
11135;SDS011;5622;50.840;4.948;2023-11-21T06:53:17;37.97;;;18.47;;
11135;SDS011;5622;50.840;4.948;2023-11-21T06:55:51;45.77;;;18.33;;
11135;SDS011;5622;50.840;4.948;2023-11-21T06:58:41;35.77;;;18.07;;
11135;SDS011;5622;50.840;4.948;2023-11-21T07:01:10;51.13;;;20.30;;
11135;SDS011;5622;50.840;4.948;2023-11-21T07:03:38;43.77;;;21.30;;
11135;SDS011;5622;50.840;4.948;2023-11-21T07:06:08;44.40;;;22.27;;
11135;SDS011;5622;50.840;4.948;2023-11-21T07:08:35;52.70;;;24.27;;
11135;SDS011;5622;50.840;4.948;2023-11-21T07:11:19;59.90;;;27.67;;
11135;SDS011;5622;50.840;4.948;2023-11-21T07:13:52;64.10;;;27.93;;
11135;SDS011;5622;50.840;4.948;2023-11-21T07:16:19;51.37;;;24.30;;
11135;SDS011;5622;50.840;4.948;2023-11-21T07:18:47;50.03;;;23.90;;
11135;SDS011;5622;50.840;4.948;2023-11-21T07:21:15;46.57;;;21.60;;
11135;SDS011;5622;50.840;4.948;2023-11-21T07:23:42;48.73;;;21.63;;
11135;SDS011;5622;50.840;4.948;2023-11-21T07:26:14;42.27;;;20.73;;
11135;SDS011;5622;50.840;4.948;2023-11-21T07:28:48;44.43;;;19.70;;
11135;SDS011;5622;50.840;4.948;2023-11-21T07:31:17;42.13;;;19.53;;
11135;SDS011;5622;50.840;4.948;2023-11-21T07:33:44;39.77;;;17.63;;
11135;SDS011;5622;50.840;4.948;2023-11-21T07:36:12;34.83;;;18.10;;
11135;SDS011;5622;50.840;4.948;2023-11-21T07:38:39;40.70;;;19.20;;
11135;SDS011;5622;50.840;4.948;2023-11-21T07:41:06;40.80;;;19.03;;
11135;SDS011;5622;50.840;4.948;2023-11-21T07:43:34;36.30;;;16.70;;
11135;SDS011;5622;50.840;4.948;2023-11-21T07:46:01;56.67;;;18.73;;
11135;SDS011;5622;50.840;4.948;2023-11-21T07:48:30;33.43;;;17.10;;
11135;SDS011;5622;50.840;4.948;2023-11-21T07:51:02;47.57;;;20.20;;
11135;SDS011;5622;50.840;4.948;2023-11-21T07:53:29;38.40;;;18.70;;
11135;SDS011;5622;50.840;4.948;2023-11-21T07:55:57;59.27;;;22.37;;
11135;SDS011;5622;50.840;4.948;2023-11-21T07:58:26;62.90;;;21.40;;
11135;SDS011;5622;50.840;4.948;2023-11-21T08:00:53;43.00;;;20.37;;
11135;SDS011;5622;50.840;4.948;2023-11-21T08:03:22;49.40;;;23.27;;
11135;SDS011;5622;50.840;4.948;2023-11-21T08:05:53;52.17;;;24.27;;
11135;SDS011;5622;50.840;4.948;2023-11-21T08:08:20;64.90;;;28.97;;
11135;SDS011;5622;50.840;4.948;2023-11-21T08:10:47;58.23;;;26.20;;
11135;SDS011;5622;50.840;4.948;2023-11-21T08:13:26;62.70;;;28.33;;
11135;SDS011;5622;50.840;4.948;2023-11-21T08:15:54;56.10;;;24.33;;
11135;SDS011;5622;50.840;4.948;2023-11-21T08:18:25;57.20;;;25.60;;
11135;SDS011;5622;50.840;4.948;2023-11-21T08:20:53;53.43;;;24.10;;
11135;SDS011;5622;50.840;4.948;2023-11-21T08:23:21;52.40;;;23.30;;
11135;SDS011;5622;50.840;4.948;2023-11-21T08:25:50;47.73;;;22.50;;
11135;SDS011;5622;50.840;4.948;2023-11-21T08:28:19;47.53;;;22.97;;
11135;SDS011;5622;50.840;4.948;2023-11-21T08:30:47;51.80;;;22.77;;
11135;SDS011;5622;50.840;4.948;2023-11-21T08:33:14;51.43;;;21.67;;
11135;SDS011;5622;50.840;4.948;2023-11-21T08:35:46;40.33;;;18.57;;
11135;SDS011;5622;50.840;4.948;2023-11-21T08:38:14;52.87;;;21.97;;
11135;SDS011;5622;50.840;4.948;2023-11-21T08:40:41;40.40;;;19.20;;
11135;SDS011;5622;50.840;4.948;2023-11-21T08:43:09;42.50;;;18.10;;
11135;SDS011;5622;50.840;4.948;2023-11-21T08:45:37;45.37;;;18.37;;
11135;SDS011;5622;50.840;4.948;2023-11-21T08:48:04;42.90;;;19.73;;
11135;SDS011;5622;50.840;4.948;2023-11-21T08:50:31;44.33;;;19.50;;
11135;SDS011;5622;50.840;4.948;2023-11-21T08:52:59;43.17;;;18.93;;
11135;SDS011;5622;50.840;4.948;2023-11-21T08:55:28;37.37;;;17.63;;
11135;SDS011;5622;50.840;4.948;2023-11-21T08:58:02;45.30;;;19.20;;
11135;SDS011;5622;50.840;4.948;2023-11-21T09:00:32;56.00;;;20.03;;
11135;SDS011;5622;50.840;4.948;2023-11-21T09:03:00;44.17;;;18.70;;
11135;SDS011;5622;50.840;4.948;2023-11-21T09:05:30;49.93;;;22.50;;
11135;SDS011;5622;50.840;4.948;2023-11-21T09:07:58;47.67;;;22.40;;
11135;SDS011;5622;50.840;4.948;2023-11-21T09:10:26;46.90;;;21.60;;
11135;SDS011;5622;50.840;4.948;2023-11-21T09:12:55;46.67;;;20.50;;
11135;SDS011;5622;50.840;4.948;2023-11-21T09:15:24;49.47;;;21.30;;
11135;SDS011;5622;50.840;4.948;2023-11-21T09:17:51;43.60;;;20.13;;
11135;SDS011;5622;50.840;4.948;2023-11-21T09:20:18;45.33;;;19.77;;
11135;SDS011;5622;50.840;4.948;2023-11-21T09:22:48;45.70;;;20.27;;
11135;SDS011;5622;50.840;4.948;2023-11-21T09:25:17;46.90;;;21.67;;
11135;SDS011;5622;50.840;4.948;2023-11-21T09:27:46;44.37;;;21.43;;
11135;SDS011;5622;50.840;4.948;2023-11-21T09:30:13;53.33;;;22.40;;
11135;SDS011;5622;50.840;4.948;2023-11-21T09:32:41;48.87;;;21.43;;
11135;SDS011;5622;50.840;4.948;2023-11-21T09:35:11;50.20;;;21.83;;
11135;SDS011;5622;50.840;4.948;2023-11-21T09:37:42;63.80;;;24.87;;
11135;SDS011;5622;50.840;4.948;2023-11-21T09:40:12;47.73;;;21.90;;
11135;SDS011;5622;50.840;4.948;2023-11-21T09:42:43;54.80;;;23.50;;
11135;SDS011;5622;50.840;4.948;2023-11-21T09:45:17;56.10;;;24.33;;
11135;SDS011;5622;50.840;4.948;2023-11-21T09:47:50;57.67;;;23.30;;
11135;SDS011;5622;50.840;4.948;2023-11-21T09:50:22;65.07;;;23.87;;
11135;SDS011;5622;50.840;4.948;2023-11-21T09:52:54;59.40;;;24.90;;
11135;SDS011;5622;50.840;4.948;2023-11-21T09:55:26;52.27;;;22.23;;
11135;SDS011;5622;50.840;4.948;2023-11-21T09:57:56;55.80;;;23.63;;
11135;SDS011;5622;50.840;4.948;2023-11-21T10:00:26;62.40;;;22.50;;
11135;SDS011;5622;50.840;4.948;2023-11-21T10:02:58;50.77;;;22.73;;
11135;SDS011;5622;50.840;4.948;2023-11-21T10:05:27;50.07;;;21.90;;
11135;SDS011;5622;50.840;4.948;2023-11-21T10:07:59;68.33;;;24.93;;
11135;SDS011;5622;50.840;4.948;2023-11-21T10:10:27;56.47;;;24.10;;
11135;SDS011;5622;50.840;4.948;2023-11-21T10:13:00;56.10;;;22.20;;
11135;SDS011;5622;50.840;4.948;2023-11-21T10:15:33;51.00;;;21.83;;
11135;SDS011;5622;50.840;4.948;2023-11-21T10:18:03;52.80;;;22.53;;
11135;SDS011;5622;50.840;4.948;2023-11-21T10:20:32;57.23;;;23.13;;
11135;SDS011;5622;50.840;4.948;2023-11-21T10:23:01;50.50;;;21.50;;
11135;SDS011;5622;50.840;4.948;2023-11-21T10:25:29;46.93;;;20.60;;
11135;SDS011;5622;50.840;4.948;2023-11-21T10:27:58;44.60;;;20.70;;
11135;SDS011;5622;50.840;4.948;2023-11-21T10:30:32;45.27;;;20.73;;
11135;SDS011;5622;50.840;4.948;2023-11-21T10:33:02;48.47;;;22.03;;
11135;SDS011;5622;50.840;4.948;2023-11-21T10:38:24;50.73;;;23.50;;
11135;SDS011;5622;50.840;4.948;2023-11-21T10:40:54;60.13;;;24.90;;
11135;SDS011;5622;50.840;4.948;2023-11-21T10:43:26;54.27;;;22.77;;
11135;SDS011;5622;50.840;4.948;2023-11-21T10:45:57;53.10;;;22.73;;
11135;SDS011;5622;50.840;4.948;2023-11-21T10:48:25;60.17;;;25.83;;
11135;SDS011;5622;50.840;4.948;2023-11-21T10:50:52;59.67;;;25.77;;
11135;SDS011;5622;50.840;4.948;2023-11-21T10:53:21;59.40;;;24.67;;
11135;SDS011;5622;50.840;4.948;2023-11-21T10:55:49;55.57;;;25.10;;
11135;SDS011;5622;50.840;4.948;2023-11-21T10:58:29;62.27;;;26.00;;
11135;SDS011;5622;50.840;4.948;2023-11-21T11:00:57;66.27;;;26.03;;
11135;SDS011;5622;50.840;4.948;2023-11-21T11:03:26;65.80;;;26.40;;
11135;SDS011;5622;50.840;4.948;2023-11-21T11:05:53;69.87;;;26.57;;
11135;SDS011;5622;50.840;4.948;2023-11-21T11:08:21;56.83;;;26.27;;
11135;SDS011;5622;50.840;4.948;2023-11-21T11:10:51;51.70;;;23.47;;
11135;SDS011;5622;50.840;4.948;2023-11-21T11:13:19;57.83;;;23.97;;
11135;SDS011;5622;50.840;4.948;2023-11-21T11:15:48;51.03;;;23.80;;
11135;SDS011;5622;50.840;4.948;2023-11-21T11:18:16;76.37;;;29.40;;
11135;SDS011;5622;50.840;4.948;2023-11-21T11:20:43;65.60;;;27.00;;
11135;SDS011;5622;50.840;4.948;2023-11-21T11:23:19;61.00;;;27.27;;
11135;SDS011;5622;50.840;4.948;2023-11-21T11:26:03;62.77;;;23.93;;
11135;SDS011;5622;50.840;4.948;2023-11-21T11:28:42;55.10;;;24.00;;
11135;SDS011;5622;50.840;4.948;2023-11-21T11:31:18;52.23;;;22.53;;
11135;SDS011;5622;50.840;4.948;2023-11-21T11:33:57;52.77;;;22.57;;
11135;SDS011;5622;50.840;4.948;2023-11-21T11:36:31;64.37;;;22.90;;
11135;SDS011;5622;50.840;4.948;2023-11-21T11:39:03;66.87;;;24.33;;
11135;SDS011;5622;50.840;4.948;2023-11-21T11:41:53;54.00;;;22.40;;
11135;SDS011;5622;50.840;4.948;2023-11-21T11:47:19;71.70;;;34.57;;
11135;SDS011;5622;50.840;4.948;2023-11-21T11:52:41;72.57;;;32.30;;
11135;SDS011;5622;50.840;4.948;2023-11-21T11:55:09;70.10;;;30.23;;
11135;SDS011;5622;50.840;4.948;2023-11-21T11:57:38;84.37;;;35.07;;
11135;SDS011;5622;50.840;4.948;2023-11-21T12:00:07;64.00;;;29.47;;
11135;SDS011;5622;50.840;4.948;2023-11-21T12:02:51;63.93;;;28.53;;
11135;SDS011;5622;50.840;4.948;2023-11-21T12:05:19;68.00;;;30.57;;
11135;SDS011;5622;50.840;4.948;2023-11-21T12:07:49;62.30;;;23.57;;
11135;SDS011;5622;50.840;4.948;2023-11-21T12:10:18;48.00;;;23.37;;
11135;SDS011;5622;50.840;4.948;2023-11-21T12:12:47;60.67;;;23.93;;
11135;SDS011;5622;50.840;4.948;2023-11-21T12:15:13;63.63;;;23.63;;
11135;SDS011;5622;50.840;4.948;2023-11-21T12:17:41;51.80;;;22.90;;
11135;SDS011;5622;50.840;4.948;2023-11-21T12:20:11;42.37;;;19.77;;
11135;SDS011;5622;50.840;4.948;2023-11-21T12:22:42;58.30;;;23.40;;
11135;SDS011;5622;50.840;4.948;2023-11-21T12:25:12;49.40;;;22.47;;
11135;SDS011;5622;50.840;4.948;2023-11-21T12:27:42;46.43;;;23.10;;
11135;SDS011;5622;50.840;4.948;2023-11-21T12:30:11;50.70;;;24.50;;
11135;SDS011;5622;50.840;4.948;2023-11-21T12:32:41;59.33;;;25.80;;
11135;SDS011;5622;50.840;4.948;2023-11-21T12:35:09;52.73;;;25.87;;
11135;SDS011;5622;50.840;4.948;2023-11-21T12:37:38;53.57;;;25.87;;
11135;SDS011;5622;50.840;4.948;2023-11-21T12:40:06;47.73;;;22.17;;
11135;SDS011;5622;50.840;4.948;2023-11-21T12:42:36;40.00;;;21.57;;
11135;SDS011;5622;50.840;4.948;2023-11-21T12:45:18;44.30;;;21.77;;
11135;SDS011;5622;50.840;4.948;2023-11-21T12:47:46;39.00;;;19.07;;
11135;SDS011;5622;50.840;4.948;2023-11-21T12:50:19;43.27;;;20.27;;
11135;SDS011;5622;50.840;4.948;2023-11-21T12:52:51;42.60;;;19.97;;
11135;SDS011;5622;50.840;4.948;2023-11-21T12:55:19;53.73;;;20.73;;
11135;SDS011;5622;50.840;4.948;2023-11-21T12:57:47;38.10;;;18.77;;
11135;SDS011;5622;50.840;4.948;2023-11-21T13:00:17;38.77;;;19.60;;
11135;SDS011;5622;50.840;4.948;2023-11-21T13:02:53;44.37;;;22.33;;
11135;SDS011;5622;50.840;4.948;2023-11-21T13:05:27;44.57;;;23.07;;
11135;SDS011;5622;50.840;4.948;2023-11-21T13:07:55;49.87;;;26.50;;
11135;SDS011;5622;50.840;4.948;2023-11-21T13:10:25;51.87;;;27.30;;
11135;SDS011;5622;50.840;4.948;2023-11-21T13:12:56;36.90;;;20.73;;
11135;SDS011;5622;50.840;4.948;2023-11-21T13:15:25;43.87;;;22.20;;
11135;SDS011;5622;50.840;4.948;2023-11-21T13:17:56;38.90;;;21.97;;
11135;SDS011;5622;50.840;4.948;2023-11-21T13:20:24;40.27;;;18.67;;
11135;SDS011;5622;50.840;4.948;2023-11-21T13:22:55;32.93;;;16.60;;
11135;SDS011;5622;50.840;4.948;2023-11-21T13:25:24;40.10;;;20.70;;
11135;SDS011;5622;50.840;4.948;2023-11-21T13:27:52;33.30;;;19.67;;
11135;SDS011;5622;50.840;4.948;2023-11-21T13:30:20;32.57;;;17.17;;
11135;SDS011;5622;50.840;4.948;2023-11-21T13:32:52;34.60;;;19.30;;
11135;SDS011;5622;50.840;4.948;2023-11-21T13:35:22;35.97;;;20.47;;
11135;SDS011;5622;50.840;4.948;2023-11-21T13:38:02;38.47;;;18.70;;
11135;SDS011;5622;50.840;4.948;2023-11-21T13:40:31;36.03;;;19.30;;
11135;SDS011;5622;50.840;4.948;2023-11-21T13:43:02;47.27;;;26.30;;
11135;SDS011;5622;50.840;4.948;2023-11-21T13:45:30;35.73;;;21.57;;
11135;SDS011;5622;50.840;4.948;2023-11-21T13:47:57;29.93;;;18.57;;
11135;SDS011;5622;50.840;4.948;2023-11-21T13:50:24;35.60;;;20.13;;
11135;SDS011;5622;50.840;4.948;2023-11-21T13:52:59;25.17;;;15.37;;
11135;SDS011;5622;50.840;4.948;2023-11-21T13:55:29;26.83;;;15.23;;
11135;SDS011;5622;50.840;4.948;2023-11-21T13:57:56;23.43;;;14.10;;
11135;SDS011;5622;50.840;4.948;2023-11-21T14:00:24;25.97;;;14.90;;
11135;SDS011;5622;50.840;4.948;2023-11-21T14:03:09;22.53;;;13.40;;
11135;SDS011;5622;50.840;4.948;2023-11-21T14:05:44;24.67;;;13.10;;
11135;SDS011;5622;50.840;4.948;2023-11-21T14:08:17;24.93;;;13.57;;
11135;SDS011;5622;50.840;4.948;2023-11-21T14:10:46;20.60;;;12.63;;
11135;SDS011;5622;50.840;4.948;2023-11-21T14:13:20;30.17;;;13.53;;
11135;SDS011;5622;50.840;4.948;2023-11-21T14:15:48;19.83;;;11.60;;
11135;SDS011;5622;50.840;4.948;2023-11-21T14:18:19;23.67;;;13.70;;
11135;SDS011;5622;50.840;4.948;2023-11-21T14:20:56;34.30;;;19.63;;
11135;SDS011;5622;50.840;4.948;2023-11-21T14:23:25;32.77;;;18.33;;
11135;SDS011;5622;50.840;4.948;2023-11-21T14:25:53;37.73;;;21.53;;
11135;SDS011;5622;50.840;4.948;2023-11-21T14:28:21;38.23;;;22.07;;
11135;SDS011;5622;50.840;4.948;2023-11-21T14:30:50;33.53;;;19.93;;
11135;SDS011;5622;50.840;4.948;2023-11-21T14:33:19;38.37;;;20.97;;
11135;SDS011;5622;50.840;4.948;2023-11-21T14:35:46;31.10;;;17.40;;
11135;SDS011;5622;50.840;4.948;2023-11-21T14:38:13;27.23;;;14.87;;
11135;SDS011;5622;50.840;4.948;2023-11-21T14:40:42;27.57;;;15.23;;
11135;SDS011;5622;50.840;4.948;2023-11-21T14:43:10;23.63;;;14.20;;
11135;SDS011;5622;50.840;4.948;2023-11-21T14:45:38;24.50;;;14.50;;
11135;SDS011;5622;50.840;4.948;2023-11-21T14:48:05;43.43;;;23.00;;
11135;SDS011;5622;50.840;4.948;2023-11-21T14:50:41;28.30;;;17.27;;
11135;SDS011;5622;50.840;4.948;2023-11-21T14:53:31;34.13;;;20.07;;
11135;SDS011;5622;50.840;4.948;2023-11-21T14:56:10;35.40;;;21.23;;
11135;SDS011;5622;50.840;4.948;2023-11-21T14:58:36;32.50;;;20.20;;
11135;SDS011;5622;50.840;4.948;2023-11-21T15:01:04;38.53;;;22.13;;
11135;SDS011;5622;50.840;4.948;2023-11-21T15:03:31;30.87;;;19.97;;
11135;SDS011;5622;50.840;4.948;2023-11-21T15:06:14;30.97;;;19.90;;
11135;SDS011;5622;50.840;4.948;2023-11-21T15:08:55;28.57;;;15.67;;
11135;SDS011;5622;50.840;4.948;2023-11-21T15:11:55;23.17;;;15.63;;
11135;SDS011;5622;50.840;4.948;2023-11-21T15:14:27;28.53;;;18.67;;
11135;SDS011;5622;50.840;4.948;2023-11-21T15:16:59;28.93;;;19.87;;
11135;SDS011;5622;50.840;4.948;2023-11-21T15:19:27;35.37;;;19.77;;
11135;SDS011;5622;50.840;4.948;2023-11-21T15:21:56;38.27;;;24.47;;
11135;SDS011;5622;50.840;4.948;2023-11-21T15:24:27;32.53;;;21.90;;
11135;SDS011;5622;50.840;4.948;2023-11-21T15:26:54;26.30;;;15.53;;
11135;SDS011;5622;50.840;4.948;2023-11-21T15:29:22;37.60;;;21.73;;
11135;SDS011;5622;50.840;4.948;2023-11-21T15:31:50;43.00;;;24.37;;
11135;SDS011;5622;50.840;4.948;2023-11-21T15:34:21;76.50;;;40.13;;
11135;SDS011;5622;50.840;4.948;2023-11-21T15:36:49;72.40;;;34.70;;
11135;SDS011;5622;50.840;4.948;2023-11-21T15:39:19;134.10;;;62.23;;
11135;SDS011;5622;50.840;4.948;2023-11-21T15:41:50;68.80;;;38.27;;
11135;SDS011;5622;50.840;4.948;2023-11-21T15:44:19;40.80;;;22.83;;
11135;SDS011;5622;50.840;4.948;2023-11-21T15:46:50;26.07;;;14.00;;
11135;SDS011;5622;50.840;4.948;2023-11-21T15:49:17;28.93;;;19.07;;
11135;SDS011;5622;50.840;4.948;2023-11-21T15:51:47;31.47;;;22.00;;
11135;SDS011;5622;50.840;4.948;2023-11-21T15:54:19;26.33;;;19.70;;
11135;SDS011;5622;50.840;4.948;2023-11-21T15:56:47;78.03;;;53.43;;
11135;SDS011;5622;50.840;4.948;2023-11-21T15:59:14;49.50;;;33.63;;
11135;SDS011;5622;50.840;4.948;2023-11-21T16:01:43;33.63;;;20.43;;
11135;SDS011;5622;50.840;4.948;2023-11-21T16:04:12;21.97;;;15.53;;
11135;SDS011;5622;50.840;4.948;2023-11-21T16:06:41;25.90;;;13.83;;
11135;SDS011;5622;50.840;4.948;2023-11-21T16:09:09;22.13;;;13.70;;